This is the latest recevied weather packets stored in our database for station/object VK1KCM-5. If no packets are shown the sender has not sent any weather packets the latest 10 day(s).
| Time | Temp. | Humidity | Pressure | Rain* | Wind** | Luminosity | Snow |
|---|---|---|---|---|---|---|---|
| 1787889032 | 15° C | 65% | 1023.4 hPa | 0 mm | - | - | - |
| 1787888774 | 15° C | 65% | 1023.4 hPa | 0 mm | - | - | - |
| 1787888494 | 15.56° C | 62% | 1023.4 hPa | 0 mm | - | - | - |
| 1787888229 | 15° C | 63% | 1023.5 hPa | 0 mm | - | - | - |
| 1787887949 | 15° C | 64% | 1023.8 hPa | 0 mm | - | - | - |
| 1787887694 | 15° C | 64% | 1023.6 hPa | 0 mm | - | - | - |
| 1787887404 | 13.89° C | 67% | 1023.9 hPa | 0 mm | - | - | - |
| 1787887164 | 13.89° C | 68% | 1024 hPa | 0 mm | - | - | - |
| 1787886899 | 13.89° C | 65% | 1024.2 hPa | 0 mm | - | - | - |
| 1787886610 | 13.89° C | 67% | 1024 hPa | 0 mm | - | - | - |
| 1787886334 | 14.44° C | 64% | 1024 hPa | 0 mm | - | - | - |
| 1787886076 | 14.44° C | 64% | 1024 hPa | 0 mm | - | - | - |
| 1787885834 | 13.89° C | 67% | 1024.5 hPa | 0 mm | - | - | - |
| 1787885555 | 14.44° C | 66% | 1024.3 hPa | 0 mm | - | - | - |
| 1787885287 | 14.44° C | 65% | 1024.5 hPa | 0 mm | - | - | - |
| 1787885008 | 13.89° C | 68% | 1024.6 hPa | 0 mm | - | - | - |
| 1787884727 | 13.89° C | 65% | 1024.9 hPa | 0 mm | - | - | - |
| 1787884427 | 13.89° C | 67% | 1024.9 hPa | 0 mm | - | - | - |
| 1787884152 | 13.89° C | 65% | 1024.6 hPa | 0 mm | - | - | - |
| 1787883853 | 13.33° C | 68% | 1024.9 hPa | 0 mm | - | - | - |
| 1787883572 | 13.33° C | 70% | 1025.2 hPa | 0 mm | - | - | - |
| 1787883333 | 12.78° C | 69% | 1025.2 hPa | 0 mm | - | - | - |
| 1787883047 | 12.78° C | 69% | 1025.2 hPa | 0 mm | - | - | - |
| 1787882772 | 13.33° C | 67% | 1025.3 hPa | 0 mm | - | - | - |
| 1787882502 | 13.33° C | 67% | 1025.3 hPa | 0 mm | - | - | - |
* Rain latest hour (hover to see other rain measurements)
** Current wind speed in m/s (hover to see current wind gust speed)